createdAt,value
2023-01-08T00:01:09.385Z,10.60
2023-01-08T00:03:39.201Z,10.30
2023-01-08T00:06:09.787Z,10.20
2023-01-08T00:08:37.933Z,10.10
2023-01-08T00:11:06.201Z,10.00
2023-01-08T00:13:35.880Z,10.00
2023-01-08T00:16:05.372Z,10.00
2023-01-08T00:18:33.880Z,10.00
2023-01-08T00:21:02.357Z,10.00
2023-01-08T00:23:30.618Z,10.00
2023-01-08T00:25:58.691Z,10.20
2023-01-08T00:28:26.792Z,10.20
2023-01-08T00:30:56.387Z,10.20
2023-01-08T00:33:24.452Z,10.20
2023-01-08T00:35:52.567Z,10.30
2023-01-08T00:38:20.611Z,10.50
2023-01-08T00:40:49.749Z,10.50
2023-01-08T00:43:17.755Z,10.60
2023-01-08T00:45:45.900Z,10.50
2023-01-08T00:48:15.382Z,10.50
2023-01-08T00:50:43.400Z,10.50
2023-01-08T00:53:11.513Z,10.50
2023-01-08T00:55:39.531Z,10.50
2023-01-08T00:58:07.652Z,10.50
2023-01-08T01:00:35.693Z,10.50
2023-01-08T01:03:03.817Z,10.50
2023-01-08T01:05:33.201Z,10.50
2023-01-08T01:08:01.243Z,10.50
2023-01-08T01:10:29.356Z,10.50
2023-01-08T01:12:57.379Z,10.50
2023-01-08T01:15:26.663Z,10.50
2023-01-08T01:17:54.729Z,10.50
2023-01-08T01:20:23.776Z,10.50
2023-01-08T01:22:53.157Z,10.50
2023-01-08T01:25:21.242Z,10.50
2023-01-08T01:27:49.409Z,10.50
2023-01-08T01:30:17.529Z,10.40
2023-01-08T01:32:45.536Z,10.40
2023-01-08T01:35:13.619Z,10.40
2023-01-08T01:37:42.065Z,10.30
2023-01-08T01:40:12.182Z,10.30
2023-01-08T01:42:41.263Z,10.30
2023-01-08T01:45:22.489Z,10.20
2023-01-08T01:47:56.027Z,10.20
2023-01-08T01:50:28.825Z,10.20
2023-01-08T01:53:02.085Z,10.20
2023-01-08T01:55:32.610Z,10.20
2023-01-08T01:58:07.064Z,10.10
2023-01-08T02:00:35.629Z,10.10
2023-01-08T02:03:05.208Z,10.00
2023-01-08T02:05:42.222Z,10.00
2023-01-08T02:08:13.769Z,9.90
2023-01-08T02:10:48.785Z,9.90
2023-01-08T02:13:23.977Z,9.80
2023-01-08T02:15:58.153Z,9.70
2023-01-08T02:18:33.530Z,9.70
2023-01-08T02:21:09.539Z,9.70
2023-01-08T02:23:47.316Z,9.60
2023-01-08T02:26:21.190Z,9.60
2023-01-08T02:28:54.600Z,9.50
2023-01-08T02:31:26.221Z,9.50
2023-01-08T02:33:54.491Z,9.50
2023-01-08T02:36:28.728Z,9.50
2023-01-08T02:39:17.952Z,9.50
2023-01-08T02:42:11.576Z,9.50
2023-01-08T02:44:59.610Z,9.50
2023-01-08T02:47:32.981Z,9.50
2023-01-08T02:50:08.705Z,9.50
2023-01-08T02:52:41.986Z,9.50
2023-01-08T02:55:12.310Z,9.60
2023-01-08T02:57:42.068Z,9.60
2023-01-08T03:00:11.682Z,9.60
2023-01-08T03:02:42.441Z,9.60
2023-01-08T03:05:21.859Z,9.60
2023-01-08T03:07:50.584Z,9.60
2023-01-08T03:10:21.174Z,9.50
2023-01-08T03:12:55.647Z,9.50
2023-01-08T03:15:27.996Z,9.50
2023-01-08T03:18:00.057Z,9.50
2023-01-08T03:20:28.589Z,9.50
2023-01-08T03:22:59.275Z,9.50
2023-01-08T03:25:31.091Z,9.50
2023-01-08T03:28:04.809Z,9.50
2023-01-08T03:30:33.300Z,9.50
2023-01-08T03:33:02.677Z,9.50
2023-01-08T03:35:32.772Z,9.50
2023-01-08T03:38:07.267Z,9.50
2023-01-08T03:40:40.357Z,9.50
2023-01-08T03:43:09.806Z,9.50
2023-01-08T03:45:39.691Z,9.50
2023-01-08T03:48:09.077Z,9.50
2023-01-08T03:50:37.346Z,9.40
2023-01-08T03:53:05.434Z,9.40
2023-01-08T03:55:33.416Z,9.40
2023-01-08T03:58:01.470Z,9.40
2023-01-08T04:00:30.859Z,9.40
2023-01-08T04:02:59.094Z,9.40
2023-01-08T04:05:27.160Z,9.40
2023-01-08T04:07:57.541Z,9.40
2023-01-08T04:10:25.835Z,9.40
2023-01-08T04:12:54.217Z,9.30
2023-01-08T04:15:22.544Z,9.30
2023-01-08T04:17:51.934Z,9.30
2023-01-08T04:20:20.295Z,9.30
2023-01-08T04:22:48.394Z,9.30
2023-01-08T04:25:16.517Z,9.30
2023-01-08T04:27:44.516Z,9.30
2023-01-08T04:30:13.203Z,9.30
2023-01-08T04:32:41.266Z,9.20
2023-01-08T04:35:11.154Z,9.20
2023-01-08T04:37:39.180Z,9.20
2023-01-08T04:40:08.372Z,9.20
2023-01-08T04:42:36.431Z,9.20
2023-01-08T04:45:04.738Z,9.20
2023-01-08T04:47:32.804Z,9.20
2023-01-08T04:50:00.877Z,9.10
2023-01-08T04:52:30.799Z,9.10
2023-01-08T04:54:58.854Z,9.10
2023-01-08T04:57:26.930Z,9.10
2023-01-08T04:59:55.056Z,9.10
2023-01-08T05:02:23.261Z,9.10
2023-01-08T05:04:51.413Z,9.10
2023-01-08T05:07:19.384Z,9.10
2023-01-08T05:09:49.855Z,9.10
2023-01-08T05:12:17.874Z,9.10
2023-01-08T05:14:45.921Z,9.00
2023-01-08T05:17:13.966Z,9.00
2023-01-08T05:19:42.284Z,9.00
2023-01-08T05:22:10.279Z,9.00
2023-01-08T05:24:38.262Z,9.00
2023-01-08T05:27:07.500Z,9.00
2023-01-08T05:29:35.554Z,8.90
2023-01-08T05:32:03.596Z,8.90
2023-01-08T05:34:31.553Z,8.90
2023-01-08T05:36:59.620Z,8.80
2023-01-08T05:39:27.677Z,8.80
2023-01-08T05:41:55.669Z,8.80
2023-01-08T05:44:25.028Z,8.80
2023-01-08T05:46:54.663Z,8.80
2023-01-08T05:49:23.903Z,8.80
2023-01-08T05:51:52.201Z,8.80
2023-01-08T05:54:20.224Z,8.80
2023-01-08T05:56:48.208Z,8.70
2023-01-08T05:59:16.373Z,8.60
2023-01-08T06:01:45.840Z,8.60
2023-01-08T06:04:14.036Z,8.50
2023-01-08T06:06:42.121Z,8.50
2023-01-08T06:09:10.177Z,8.50
2023-01-08T06:11:38.178Z,8.40
2023-01-08T06:14:06.276Z,8.40
2023-01-08T06:16:34.348Z,8.40
2023-01-08T06:19:03.773Z,8.40
2023-01-08T06:21:31.923Z,8.40
2023-01-08T06:23:59.999Z,8.30
2023-01-08T06:26:28.036Z,8.30
2023-01-08T06:28:56.030Z,8.30
2023-01-08T06:31:24.111Z,8.30
2023-01-08T06:33:52.157Z,8.20
2023-01-08T06:36:21.684Z,8.20
2023-01-08T06:38:49.715Z,8.20
2023-01-08T06:41:19.064Z,8.20
2023-01-08T06:43:47.134Z,8.20
2023-01-08T06:46:15.227Z,8.20
2023-01-08T06:48:43.381Z,8.10
2023-01-08T06:51:11.512Z,8.20
2023-01-08T06:53:40.877Z,8.10
2023-01-08T06:56:10.879Z,8.10
2023-01-08T06:58:40.042Z,8.10
2023-01-08T07:01:08.364Z,8.10
2023-01-08T07:03:36.707Z,8.10
2023-01-08T07:06:05.166Z,8.10
2023-01-08T07:08:33.168Z,8.00
2023-01-08T07:11:05.006Z,8.10
2023-01-08T07:13:33.120Z,8.10
2023-01-08T07:16:07.315Z,8.10
2023-01-08T07:18:36.297Z,8.00
2023-01-08T07:21:04.704Z,8.00
2023-01-08T07:23:33.592Z,8.00
2023-01-08T07:26:01.950Z,8.00
2023-01-08T07:28:32.151Z,8.00
2023-01-08T07:31:04.650Z,7.90
2023-01-08T07:33:33.966Z,7.90
2023-01-08T07:36:02.405Z,7.90
2023-01-08T07:38:30.431Z,7.90
2023-01-08T07:40:59.101Z,7.90
2023-01-08T07:43:29.931Z,7.80
2023-01-08T07:45:59.381Z,7.80
2023-01-08T07:48:27.567Z,7.80
2023-01-08T07:50:55.687Z,7.70
2023-01-08T07:53:23.783Z,7.70
2023-01-08T07:55:51.820Z,7.80
2023-01-08T07:58:19.882Z,7.70
2023-01-08T08:00:47.928Z,7.70
2023-01-08T08:03:17.567Z,7.70
2023-01-08T08:05:45.779Z,7.70
2023-01-08T08:08:14.725Z,7.60
2023-01-08T08:10:43.765Z,7.60
2023-01-08T08:13:12.851Z,7.60
2023-01-08T08:15:41.710Z,7.60
2023-01-08T08:18:10.443Z,7.60
2023-01-08T08:20:40.361Z,7.60
2023-01-08T08:23:13.014Z,7.60
2023-01-08T08:25:41.823Z,7.70
2023-01-08T08:28:11.925Z,7.70
2023-01-08T08:30:42.657Z,7.70
2023-01-08T08:33:11.664Z,7.70
2023-01-08T08:35:41.216Z,7.70
2023-01-08T08:38:09.258Z,7.70
2023-01-08T08:40:37.327Z,7.70
2023-01-08T08:43:05.911Z,7.70
2023-01-08T08:45:34.347Z,7.70
2023-01-08T08:48:02.380Z,7.70
2023-01-08T08:50:30.425Z,7.70
2023-01-08T08:53:02.033Z,7.70
2023-01-08T08:55:30.490Z,7.60
2023-01-08T08:58:05.415Z,7.60
2023-01-08T09:00:34.030Z,7.60
2023-01-08T09:03:02.220Z,7.60
2023-01-08T09:05:30.439Z,7.60
2023-01-08T09:07:58.495Z,7.50
2023-01-08T09:10:28.078Z,7.50
2023-01-08T09:12:56.493Z,7.60
2023-01-08T09:15:24.568Z,7.70
2023-01-08T09:17:56.442Z,7.80
2023-01-08T09:20:25.726Z,7.80
2023-01-08T09:22:54.112Z,7.90
2023-01-08T09:25:22.184Z,8.00
2023-01-08T09:27:59.168Z,8.10
2023-01-08T09:30:27.303Z,8.20
2023-01-08T09:33:01.369Z,8.30
2023-01-08T09:35:30.816Z,8.40
2023-01-08T09:37:59.526Z,8.40
2023-01-08T09:40:40.639Z,8.40
2023-01-08T09:43:18.637Z,8.50
2023-01-08T09:45:52.573Z,8.60
2023-01-08T09:48:24.099Z,8.60
2023-01-08T09:50:52.463Z,8.70
2023-01-08T09:53:21.489Z,8.70
2023-01-08T09:56:08.620Z,8.80
2023-01-08T09:58:40.615Z,8.80
2023-01-08T10:01:12.775Z,8.90
2023-01-08T10:03:42.920Z,9.00
2023-01-08T10:06:12.513Z,9.00
2023-01-08T10:08:41.013Z,9.10
2023-01-08T10:11:12.065Z,9.20
2023-01-08T10:13:44.157Z,9.20
2023-01-08T10:16:21.370Z,9.30
2023-01-08T10:18:49.720Z,9.40
2023-01-08T10:21:18.941Z,9.50
2023-01-08T10:23:51.617Z,9.50
2023-01-08T10:26:30.623Z,9.60
2023-01-08T10:29:13.249Z,9.60
2023-01-08T10:31:50.874Z,9.60
2023-01-08T10:34:32.598Z,9.80
2023-01-08T10:37:01.276Z,9.80
2023-01-08T10:39:33.320Z,9.80
2023-01-08T10:42:07.786Z,9.80
2023-01-08T10:44:37.945Z,9.90
2023-01-08T10:47:07.138Z,9.90
2023-01-08T10:49:39.227Z,10.00
2023-01-08T10:52:20.091Z,10.10
2023-01-08T10:54:48.381Z,10.20
2023-01-08T10:57:25.548Z,10.20
2023-01-08T10:59:56.068Z,10.20
2023-01-08T11:02:36.454Z,10.30
2023-01-08T11:05:10.349Z,10.30
2023-01-08T11:07:40.266Z,10.30
2023-01-08T11:10:21.083Z,10.40
2023-01-08T11:12:50.137Z,10.50
2023-01-08T11:15:35.186Z,10.40
2023-01-08T11:18:09.041Z,10.50
2023-01-08T11:20:37.345Z,10.50
2023-01-08T11:23:07.136Z,10.50
2023-01-08T11:25:36.760Z,10.70
2023-01-08T11:28:06.894Z,10.60
2023-01-08T11:30:39.684Z,10.60
2023-01-08T11:33:13.505Z,10.70
2023-01-08T11:35:46.042Z,10.70
2023-01-08T11:38:14.626Z,10.80
2023-01-08T11:40:47.324Z,10.90
2023-01-08T11:43:26.372Z,10.80
2023-01-08T11:46:09.057Z,11.00
2023-01-08T11:48:54.641Z,11.00
2023-01-08T11:51:44.664Z,11.00
2023-01-08T11:54:26.321Z,11.00
2023-01-08T11:57:07.230Z,11.10
2023-01-08T11:59:47.925Z,11.10
2023-01-08T12:02:27.784Z,11.20
2023-01-08T12:05:20.081Z,11.20
2023-01-08T12:07:55.173Z,11.00
2023-01-08T12:10:27.298Z,11.00
2023-01-08T12:13:11.605Z,11.20
2023-01-08T12:15:52.011Z,11.20
2023-01-08T12:18:33.223Z,11.40
2023-01-08T12:21:11.609Z,11.50
2023-01-08T12:24:04.281Z,11.40
2023-01-08T12:26:40.461Z,11.30
2023-01-08T12:29:28.877Z,11.30
2023-01-08T12:32:21.712Z,11.20
2023-01-08T12:34:57.509Z,11.10
2023-01-08T12:37:30.537Z,11.10
2023-01-08T12:40:07.174Z,11.40
2023-01-08T12:42:46.772Z,11.50
2023-01-08T12:45:22.280Z,11.40
2023-01-08T12:47:54.627Z,11.40
2023-01-08T12:50:33.626Z,11.20
2023-01-08T12:53:07.990Z,11.40
2023-01-08T12:55:44.284Z,11.60
2023-01-08T12:58:24.130Z,11.70
2023-01-08T13:00:57.544Z,11.70
2023-01-08T13:03:29.485Z,11.70
2023-01-08T13:06:09.696Z,11.70
2023-01-08T13:08:39.927Z,11.60
2023-01-08T13:11:09.427Z,11.40
2023-01-08T13:13:41.689Z,11.30
2023-01-08T13:16:21.347Z,11.20
2023-01-08T13:18:58.202Z,11.30
2023-01-08T13:21:34.684Z,11.20
2023-01-08T13:24:05.768Z,11.30
2023-01-08T13:26:35.548Z,11.40
2023-01-08T13:29:28.244Z,11.30
2023-01-08T13:31:56.427Z,11.40
2023-01-08T13:34:38.767Z,11.30
2023-01-08T13:37:16.448Z,11.30
2023-01-08T13:39:51.318Z,11.20
2023-01-08T13:42:28.609Z,11.20
2023-01-08T13:45:02.098Z,11.30
2023-01-08T13:47:33.914Z,11.30
2023-01-08T13:50:05.244Z,11.30
2023-01-08T13:52:42.585Z,11.20
2023-01-08T13:55:18.725Z,11.00
2023-01-08T13:57:50.381Z,10.90
2023-01-08T14:00:24.319Z,10.80
2023-01-08T14:02:54.852Z,10.80
2023-01-08T14:05:27.597Z,10.70
2023-01-08T14:07:58.838Z,10.70
2023-01-08T14:10:27.977Z,10.70
2023-01-08T14:13:02.964Z,10.70
2023-01-08T14:15:31.155Z,10.70
2023-01-08T14:17:59.308Z,10.70
2023-01-08T14:20:35.699Z,10.70
2023-01-08T14:23:12.688Z,10.70
2023-01-08T14:25:42.251Z,10.70
2023-01-08T14:28:18.509Z,10.70
2023-01-08T14:30:51.179Z,10.60
2023-01-08T14:33:21.697Z,10.60
2023-01-08T14:35:51.249Z,10.60
2023-01-08T14:38:20.647Z,10.60
2023-01-08T14:40:52.414Z,10.60
2023-01-08T14:43:22.490Z,10.60
2023-01-08T14:45:53.220Z,10.60
2023-01-08T14:48:25.387Z,10.50
2023-01-08T14:51:04.195Z,10.40
2023-01-08T14:53:37.596Z,10.30
2023-01-08T14:56:07.695Z,10.30
2023-01-08T14:58:41.356Z,10.20
2023-01-08T15:01:15.886Z,10.20
2023-01-08T15:03:45.988Z,10.10
2023-01-08T15:06:25.320Z,10.10
2023-01-08T15:08:54.856Z,10.10
2023-01-08T15:11:24.865Z,10.10
2023-01-08T15:13:54.295Z,10.00
2023-01-08T15:16:28.833Z,10.00
2023-01-08T15:19:07.947Z,9.90
2023-01-08T15:21:37.044Z,9.80
2023-01-08T15:24:08.423Z,9.80
2023-01-08T15:26:36.446Z,9.70
2023-01-08T15:29:07.166Z,9.70
2023-01-08T15:31:47.383Z,9.70
2023-01-08T15:34:17.091Z,9.60
2023-01-08T15:36:46.645Z,9.50
2023-01-08T15:39:16.112Z,9.50
2023-01-08T15:42:01.596Z,9.40
2023-01-08T15:44:29.680Z,9.30
2023-01-08T15:46:58.245Z,9.30
2023-01-08T15:49:26.337Z,9.20
2023-01-08T15:51:54.691Z,9.20
2023-01-08T15:54:26.298Z,9.10
2023-01-08T15:56:54.449Z,9.10
2023-01-08T15:59:22.517Z,9.10
2023-01-08T16:01:50.676Z,9.10
2023-01-08T16:04:18.987Z,9.10
2023-01-08T16:06:47.177Z,9.00
2023-01-08T16:09:15.173Z,9.00
2023-01-08T16:11:44.624Z,9.00
2023-01-08T16:14:12.860Z,9.00
2023-01-08T16:16:41.027Z,9.00
2023-01-08T16:19:09.170Z,8.90
2023-01-08T16:21:37.204Z,8.90
2023-01-08T16:24:05.875Z,8.90
2023-01-08T16:26:34.018Z,8.80
2023-01-08T16:29:03.377Z,8.80
2023-01-08T16:31:31.442Z,8.70
2023-01-08T16:34:02.820Z,8.70
2023-01-08T16:36:30.928Z,8.70
2023-01-08T16:38:59.063Z,8.70
2023-01-08T16:41:27.107Z,8.60
2023-01-08T16:43:55.226Z,8.60
2023-01-08T16:46:24.966Z,8.60
2023-01-08T16:48:53.055Z,8.60
2023-01-08T16:51:21.694Z,8.60
2023-01-08T16:53:49.840Z,8.60
2023-01-08T16:56:17.959Z,8.70
2023-01-08T16:58:46.115Z,8.70
2023-01-08T17:01:15.219Z,8.70
2023-01-08T17:03:44.852Z,8.80
2023-01-08T17:06:14.610Z,8.90
2023-01-08T17:08:43.451Z,8.90
2023-01-08T17:11:14.528Z,9.00
2023-01-08T17:13:43.112Z,9.00
2023-01-08T17:16:12.629Z,9.10
2023-01-08T17:18:40.969Z,9.10
2023-01-08T17:21:12.238Z,9.10
2023-01-08T17:23:40.642Z,9.00
2023-01-08T17:26:11.038Z,9.00
2023-01-08T17:28:39.413Z,9.10
2023-01-08T17:31:09.890Z,9.10
2023-01-08T17:33:38.365Z,9.10
2023-01-08T17:36:13.560Z,9.10
2023-01-08T17:38:42.888Z,9.10
2023-01-08T17:41:31.525Z,9.00
2023-01-08T17:43:59.868Z,9.00
2023-01-08T17:46:28.288Z,9.00
2023-01-08T17:48:56.377Z,8.90
2023-01-08T17:51:25.875Z,8.90
2023-01-08T17:53:53.956Z,8.90
2023-01-08T17:56:22.154Z,8.90
2023-01-08T17:58:50.491Z,8.80
2023-01-08T18:01:19.249Z,8.80
2023-01-08T18:03:47.822Z,8.80
2023-01-08T18:06:16.561Z,8.80
2023-01-08T18:08:46.082Z,8.90
2023-01-08T18:11:14.246Z,8.90
2023-01-08T18:13:42.381Z,8.90
2023-01-08T18:16:13.723Z,8.90
2023-01-08T18:18:42.870Z,8.90
2023-01-08T18:21:11.207Z,8.90
2023-01-08T18:23:39.616Z,9.00
2023-01-08T18:26:12.351Z,8.90
2023-01-08T18:28:40.962Z,9.00
2023-01-08T18:31:10.865Z,9.00
2023-01-08T18:33:40.066Z,9.00
2023-01-08T18:36:10.768Z,9.00
2023-01-08T18:38:40.238Z,9.00
2023-01-08T18:41:11.089Z,9.00
2023-01-08T18:43:39.243Z,9.00
2023-01-08T18:46:09.298Z,9.10
2023-01-08T18:48:37.335Z,9.00
2023-01-08T18:51:07.504Z,9.00
2023-01-08T18:53:35.711Z,9.00
2023-01-08T18:56:03.820Z,9.00
2023-01-08T18:58:33.246Z,9.00
2023-01-08T19:01:04.286Z,8.90
2023-01-08T19:03:32.671Z,8.90
2023-01-08T19:06:00.728Z,8.80
2023-01-08T19:08:29.855Z,8.80
2023-01-08T19:10:57.906Z,8.70
2023-01-08T19:13:26.127Z,8.70
2023-01-08T19:15:55.577Z,8.70
2023-01-08T19:18:23.656Z,8.60
2023-01-08T19:20:51.706Z,8.70
2023-01-08T19:23:19.828Z,8.70
2023-01-08T19:25:47.970Z,8.70
2023-01-08T19:28:16.408Z,8.70
2023-01-08T19:30:44.643Z,8.70
2023-01-08T19:33:16.540Z,8.80
2023-01-08T19:35:44.626Z,8.70
2023-01-08T19:38:12.818Z,8.80
2023-01-08T19:40:40.863Z,8.80
2023-01-08T19:43:27.703Z,8.80
2023-01-08T19:45:55.913Z,8.90
2023-01-08T19:48:25.700Z,8.90
2023-01-08T19:50:54.023Z,8.90
2023-01-08T19:53:22.120Z,8.90
2023-01-08T19:55:50.440Z,8.90
2023-01-08T19:58:19.566Z,8.90
2023-01-08T20:00:47.715Z,8.80
2023-01-08T20:03:19.935Z,8.80
2023-01-08T20:05:49.385Z,8.90
2023-01-08T20:08:17.436Z,8.90
2023-01-08T20:10:45.500Z,8.80
2023-01-08T20:13:13.652Z,8.80
2023-01-08T20:15:42.797Z,8.80
2023-01-08T20:18:11.692Z,8.80
2023-01-08T20:20:40.800Z,8.80
2023-01-08T20:23:12.054Z,8.80
2023-01-08T20:25:42.053Z,8.80
2023-01-08T20:28:10.093Z,8.80
2023-01-08T20:30:38.263Z,8.80
2023-01-08T20:33:06.353Z,8.80
2023-01-08T20:35:37.361Z,8.80
2023-01-08T20:38:05.426Z,8.70
2023-01-08T20:40:37.833Z,8.70
2023-01-08T20:43:05.878Z,8.60
2023-01-08T20:45:33.967Z,8.60
2023-01-08T20:48:02.039Z,8.60
2023-01-08T20:50:30.123Z,8.50
2023-01-08T20:52:59.982Z,8.40
2023-01-08T20:55:28.320Z,8.40
2023-01-08T20:57:57.773Z,8.40
2023-01-08T21:00:26.305Z,8.40
2023-01-08T21:02:54.719Z,8.30
2023-01-08T21:05:24.319Z,8.30
2023-01-08T21:07:52.303Z,8.20
2023-01-08T21:10:20.461Z,8.20
2023-01-08T21:12:48.485Z,8.20
2023-01-08T21:15:18.082Z,8.20
2023-01-08T21:17:46.254Z,8.20
2023-01-08T21:20:14.644Z,8.10
2023-01-08T21:22:43.003Z,8.10
2023-01-08T21:25:12.874Z,8.10
2023-01-08T21:27:40.933Z,8.10
2023-01-08T21:30:10.455Z,8.10
2023-01-08T21:32:39.918Z,8.00
2023-01-08T21:35:08.661Z,8.00
2023-01-08T21:37:37.259Z,8.10
2023-01-08T21:40:07.516Z,8.10
2023-01-08T21:43:04.784Z,8.10
2023-01-08T21:45:32.991Z,8.20
2023-01-08T21:48:02.646Z,8.20
2023-01-08T21:50:30.723Z,8.10
2023-01-08T21:53:16.088Z,8.10
2023-01-08T21:55:44.539Z,8.20
2023-01-08T21:58:12.559Z,8.20
2023-01-08T22:00:40.681Z,8.20
2023-01-08T22:03:10.145Z,8.20
2023-01-08T22:05:38.205Z,8.20
2023-01-08T22:08:06.924Z,8.20
2023-01-08T22:10:35.177Z,8.20
2023-01-08T22:13:03.230Z,8.20
2023-01-08T22:15:31.326Z,8.20
2023-01-08T22:17:59.437Z,8.30
2023-01-08T22:20:28.851Z,8.30
2023-01-08T22:22:56.956Z,8.30
2023-01-08T22:25:25.035Z,8.20
2023-01-08T22:27:54.616Z,8.20
2023-01-08T22:30:22.860Z,8.20
2023-01-08T22:32:50.889Z,8.20
2023-01-08T22:35:19.059Z,8.10
2023-01-08T22:37:48.476Z,8.10
2023-01-08T22:40:17.074Z,8.20
2023-01-08T22:42:45.086Z,8.20
2023-01-08T22:45:13.181Z,8.20
2023-01-08T22:47:41.233Z,8.20
2023-01-08T22:50:10.540Z,8.20
2023-01-08T22:52:38.703Z,8.10
2023-01-08T22:55:09.035Z,8.20
2023-01-08T22:57:37.175Z,8.10
2023-01-08T23:00:09.810Z,8.10
2023-01-08T23:02:38.215Z,8.00
2023-01-08T23:05:07.007Z,8.00
2023-01-08T23:07:35.066Z,7.90
2023-01-08T23:10:03.123Z,7.90
2023-01-08T23:12:34.384Z,7.90
2023-01-08T23:15:03.333Z,7.90
2023-01-08T23:17:32.405Z,7.90
2023-01-08T23:20:01.946Z,7.80
2023-01-08T23:22:32.206Z,7.90
2023-01-08T23:25:00.598Z,7.80
2023-01-08T23:27:33.050Z,7.90
2023-01-08T23:30:01.328Z,7.90
2023-01-08T23:32:29.508Z,7.90
2023-01-08T23:34:57.618Z,7.90
2023-01-08T23:37:25.660Z,7.90
2023-01-08T23:39:53.840Z,7.90
2023-01-08T23:42:21.953Z,7.90
2023-01-08T23:44:51.497Z,7.90
2023-01-08T23:47:19.672Z,7.80
2023-01-08T23:49:47.792Z,7.80
2023-01-08T23:52:15.906Z,7.80
2023-01-08T23:54:44.107Z,7.80
2023-01-08T23:57:12.173Z,7.80
2023-01-08T23:59:40.389Z,7.70
